Flight Track Log - Related Links

Times and Time Zones

All times are in EDT time to prevent confusion due to time zone crossing. See the N232CF flight status page for this flight to view local times or setup timezone preferences in your user account.

Time Position Orientation Groundspeed Altitude Reporting Facility
EDT Latitude Longitude Course Direction KTS MPH feet Rate Location/Type
Mon 10:02:51 AM 33.8500 -84.3167 239° Southwest 190 219 2,400  Level Atlanta TRACON
Mon 10:03:51 AM 33.8167 -84.3833 239° Southwest 242 278 3,500 1,714 Climbing Atlanta TRACON
Mon 10:04:57 AM 33.8167 -84.4667 270° West 255 293 6,000 1,200 Climbing Atlanta TRACON
Mon 10:05:56 AM 33.8167 -84.5667 270° West 256 295 6,000 550 Level Atlanta TRACON
Mon 10:06:57 AM 33.8167 -84.6500 270° West 256 295 7,100 2,430 Climbing Atlanta TRACON
Mon 10:07:57 AM 33.8167 -84.7333 270° West 259 298 10,900 2,387 Climbing Atlanta TRACON
Mon 10:10:08 AM 33.7389 -84.9331 245° Southwest 323 372 14,700 1,979 Climbing Atlanta Center
Mon 10:11:08 AM 33.7025 -85.0425 248° West 359 413 17,200 2,600 Climbing Atlanta Center
Mon 10:12:08 AM 33.6825 -85.1697 259° West 365 420 19,900 2,300 Climbing Atlanta Center
Mon 10:13:08 AM 33.6731 -85.2919 265° West 360 414 21,800 2,000 Climbing Atlanta Center
Mon 10:14:08 AM 33.6550 -85.4139 260° West 368 423 23,900 2,150 Climbing Atlanta Center
Mon 10:15:08 AM 33.6308 -85.5333 256° West 374 430 26,100 2,000 Climbing Atlanta Center
Mon 10:16:08 AM 33.6125 -85.6603 260° West 374 430 27,900 1,850 Climbing Atlanta Center
Mon 10:17:08 AM 33.6022 -85.7897 265° West 384 442 29,800 1,900 Climbing Atlanta Center
Mon 10:18:08 AM 33.5883 -85.8967 261° West 384 442 31,700 1,850 Climbing Atlanta Center
Mon 10:19:08 AM 33.5756 -86.0408 264° West 395 455 33,500 1,550 Climbing Atlanta Center
Mon 10:20:08 AM 33.5628 -86.1728 263° West 395 455 34,800 1,750 Climbing Atlanta Center
Mon 10:21:08 AM 33.5478 -86.3119 263° West 415 478 37,000 1,800 Climbing Atlanta Center
Mon 10:22:08 AM 33.5353 -86.4239 262° West 415 478 38,400 1,500 Climbing Atlanta Center
Mon 10:23:08 AM 33.5178 -86.5728 262° West 421 484 40,000 800 Climbing Atlanta Center
Mon 10:24:08 AM 33.5022 -86.7169 263° West 432 497 40,000  Level Atlanta Center
Mon 10:25:08 AM 33.4864 -86.8683 263° West 449 517 40,000  Level Atlanta Center
Mon 10:26:08 AM 33.4700 -87.0247 263° West 468 539 40,000  Level Atlanta Center
Mon 10:27:08 AM 33.4514 -87.1858 262° West 485 558 40,000  Level Atlanta Center
Mon 10:29:08 AM 33.4156 -87.5028 262° West 480 552 40,000  Level Memphis Center
Mon 10:30:09 AM 33.3961 -87.6600 262° West 485 558 40,000  Level Memphis Center
Mon 10:31:08 AM 33.3786 -87.8147 262° West 485 558 40,000 908 Level Memphis Center
Mon 10:32:08 AM 33.3628 -87.9669 263° West 479 551 41,800 1,500 Climbing Memphis Center
Mon 10:33:08 AM 33.3467 -88.1167 263° West 467 537 43,000 600 Climbing Memphis Center
Mon 10:34:08 AM 33.3289 -88.2836 263° West 467 537 43,000  Level Memphis Center
Mon 10:35:08 AM 33.3083 -88.4358 261° West 467 537 43,000  Level Memphis Center
Mon 10:36:08 AM 33.2897 -88.5978 262° West 477 549 43,000  Level Memphis Center
Mon 10:37:08 AM 33.2711 -88.7547 262° West 487 560 43,000  Level Memphis Center
Mon 10:38:08 AM 33.2500 -88.9139 261° West 487 560 43,000  Level Memphis Center
Mon 10:39:08 AM 33.2331 -89.0758 263° West 487 560 43,000  Level Memphis Center
Mon 10:40:08 AM 33.2094 -89.2350 260° West 487 560 43,000  Level Memphis Center
Mon 10:41:08 AM 33.1919 -89.3817 262° West 492 566 43,000  Level Memphis Center
Mon 10:42:08 AM 33.1722 -89.5408 262° West 492 566 43,000  Level Memphis Center
Mon 10:43:08 AM 33.1525 -89.7047 262° West 492 566 43,000  Level Memphis Center
Mon 10:44:08 AM 33.1322 -89.8686 262° West 499 574 43,000  Level Memphis Center
Mon 10:45:08 AM 33.1078 -90.0347 260° West 505 581 43,000  Level Memphis Center
Mon 10:46:08 AM 33.0853 -90.1961 261° West 505 581 43,000  Level Memphis Center
Mon 10:47:08 AM 33.0581 -90.3747 260° West 505 581 43,000  Level Memphis Center
Mon 10:48:08 AM 33.0372 -90.5356 261° West 505 581 43,000  Level Memphis Center
Mon 10:49:08 AM 33.0139 -90.6992 260° West 505 581 43,000  Level Memphis Center
Mon 10:50:08 AM 32.9903 -90.8600 260° West 505 581 43,000  Level Memphis Center
Mon 10:51:08 AM 32.9667 -91.0208 260° West 505 581 43,000  Level Memphis Center
Mon 10:52:08 AM 32.9447 -91.1842 261° West 505 581 43,000  Level Memphis Center
Mon 10:54:25 AM 32.8931 -91.5531 261° West 491 565 43,000  Level Fort Worth Center
Mon 10:55:25 AM 32.8692 -91.7128 260° West 491 565 43,000 -100 Level Fort Worth Center
Mon 10:56:25 AM 32.8469 -91.8700 260° West 485 558 42,800 -700 Descending Fort Worth Center
Mon 10:57:25 AM 32.8225 -92.0297 260° West 485 558 41,600 -1,200 Descending Fort Worth Center
Mon 10:58:25 AM 32.7997 -92.1842 260° West 490 564 40,400 -1,450 Descending Fort Worth Center
Mon 10:59:25 AM 32.7750 -92.3414 259° West 490 564 38,700 -1,650 Descending Fort Worth Center
Mon 11:00:25 AM 32.7500 -92.5008 259° West 490 564 37,100 -1,750 Descending Fort Worth Center
Mon 11:01:25 AM 32.7267 -92.6550 260° West 490 564 35,200 -1,900 Descending Fort Worth Center
Mon 11:02:25 AM 32.7014 -92.8144 259° West 490 564 33,300 -2,100 Descending Fort Worth Center
Mon 11:03:25 AM 32.6758 -92.9761 259° West 490 564 31,000 -1,700 Descending Fort Worth Center
Mon 11:04:25 AM 32.6500 -93.1378 259° West 490 564 29,900 -1,350 Descending Fort Worth Center
Mon 11:05:25 AM 32.6200 -93.2969 257° West 490 564 28,300 -1,300 Descending Fort Worth Center
Mon 11:06:25 AM 32.5939 -93.4608 259° West 490 564 27,300 -1,050 Descending Fort Worth Center
Mon 11:07:25 AM 32.5694 -93.6172 260° West 496 571 26,200 -1,150 Descending Fort Worth Center
Mon 11:08:25 AM 32.5428 -93.7736 259° West 491 565 25,000 -1,250 Descending Fort Worth Center
Mon 11:09:25 AM 32.5139 -93.9325 258° West 491 565 23,700 -1,450 Descending Fort Worth Center
Mon 11:10:25 AM 32.4908 -94.0811 260° West 486 559 22,100 -1,900 Descending Fort Worth Center
Mon 11:11:25 AM 32.4653 -94.2297 259° West 475 547 19,900 -2,200 Descending Fort Worth Center
Mon 11:12:25 AM 32.4419 -94.3783 259° West 470 541 17,700 -3,450 Descending Fort Worth Center
Mon 11:13:25 AM 32.4181 -94.5192 259° West 450 518 13,000 -4,400 Descending Fort Worth Center
Mon 11:14:25 AM 32.3939 -94.6431 257° West 409 471 8,900 -3,400 Descending Fort Worth Center
Mon 11:15:25 AM 32.3728 -94.7297 254° West 366 421 6,200 -2,500 Descending Fort Worth Center
Mon 11:16:25 AM 32.3950 -94.8031 290° West 289 333 3,900 -1,700 Descending Fort Worth Center
Mon 11:17:25 AM 32.4639 -94.7936 North 193 222 2,800 -900 Descending Fort Worth Center
Mon 11:18:25 AM 32.4667 -94.7269 87° East 105 121 2,100 10,600 Descending Fort Worth Center
Mon 11:19:25 AM 32.4933 -94.7042 36° Northeast 105 121 24,000 10,950 Climbing Fort Worth Center
Mon 11:20:25 AM 32.5136 -94.6789 46° Northeast 105 121 24,000  Level Fort Worth Center
Mon 11:21:25 AM 32.5339 -94.6536 46° Northeast 105 121 24,000  Level Fort Worth Center
Mon 11:22:25 AM 32.5542 -94.6283 46° Northeast 105 121 24,000  Level Fort Worth Center
Mon 11:23:25 AM 32.5542 -94.6283 220° Southwest 105 121 24,000  Level Fort Worth Center
Mon 11:25:25 AM 32.5542 -94.6283 220° Southwest 105 121 24,000  Level Fort Worth Center

Login

Don't have an account? Register now (free) for customized features, flight alerts, and more!